createdAt,value
2023-02-20T00:04:59.357Z,3.56
2023-02-20T00:10:01.852Z,3.61
2023-02-20T00:15:06.791Z,3.66
2023-02-20T00:20:10.160Z,3.67
2023-02-20T00:25:12.916Z,3.71
2023-02-20T00:30:19.817Z,3.75
2023-02-20T00:35:23.382Z,3.77
2023-02-20T00:40:26.903Z,3.77
2023-02-20T00:45:30.732Z,3.79
2023-02-20T00:50:33.197Z,3.80
2023-02-20T00:55:35.661Z,3.83
2023-02-20T01:00:39.480Z,3.85
2023-02-20T01:05:41.968Z,3.90
2023-02-20T01:10:44.436Z,3.94
2023-02-20T01:15:48.282Z,3.98
2023-02-20T01:20:50.771Z,4.03
2023-02-20T01:25:53.246Z,4.04
2023-02-20T01:30:57.143Z,4.07
2023-02-20T01:35:59.673Z,4.09
2023-02-20T01:41:02.435Z,4.13
2023-02-20T01:46:44.830Z,4.15
2023-02-20T01:51:51.280Z,4.18
2023-02-20T01:56:57.577Z,4.21
2023-02-20T02:02:01.720Z,4.24
2023-02-20T02:07:05.469Z,4.27
2023-02-20T02:12:09.045Z,4.33
2023-02-20T02:17:44.481Z,4.37
2023-02-20T02:23:17.532Z,4.41
2023-02-20T02:28:45.615Z,4.46
2023-02-20T02:34:29.333Z,4.48
2023-02-20T02:39:42.526Z,4.51
2023-02-20T02:44:52.695Z,4.53
2023-02-20T02:50:00.604Z,4.57
2023-02-20T02:55:05.175Z,4.58
2023-02-20T03:00:12.135Z,4.63
2023-02-20T03:05:20.090Z,4.65
2023-02-20T03:10:31.650Z,4.70
2023-02-20T03:15:39.434Z,4.71
2023-02-20T03:20:45.235Z,4.77
2023-02-20T03:25:54.585Z,4.80
2023-02-20T03:31:01.833Z,4.82
2023-02-20T03:36:25.928Z,4.85
2023-02-20T03:41:50.229Z,4.86
2023-02-20T03:46:55.773Z,4.88
2023-02-20T03:51:58.500Z,4.88
2023-02-20T03:57:06.493Z,4.90
2023-02-20T04:02:13.506Z,4.93
2023-02-20T04:07:20.241Z,4.95
2023-02-20T04:12:28.049Z,4.99
2023-02-20T04:17:33.925Z,5.02
2023-02-20T04:22:42.567Z,5.04
2023-02-20T04:27:46.658Z,5.11
2023-02-20T04:32:49.135Z,5.16
2023-02-20T04:37:52.072Z,5.18
2023-02-20T04:42:55.923Z,5.24
2023-02-20T04:47:58.400Z,5.31
2023-02-20T04:53:01.532Z,5.36
2023-02-20T04:58:05.466Z,5.43
2023-02-20T05:03:08.037Z,5.48
2023-02-20T05:08:10.615Z,5.53
2023-02-20T05:13:14.444Z,5.56
2023-02-20T05:18:25.628Z,5.55
2023-02-20T05:23:28.112Z,5.58
2023-02-20T05:28:31.903Z,5.56
2023-02-20T05:33:34.426Z,5.57
2023-02-20T05:38:37.060Z,5.63
2023-02-20T05:43:40.901Z,5.62
2023-02-20T05:48:43.631Z,5.65
2023-02-20T05:53:46.124Z,5.67
2023-02-20T05:58:50.078Z,5.67
2023-02-20T06:03:52.974Z,5.67
2023-02-20T06:08:55.477Z,5.70
2023-02-20T06:13:59.305Z,5.73
2023-02-20T06:19:02.290Z,5.74
2023-02-20T06:24:06.296Z,5.76
2023-02-20T06:29:10.376Z,5.78
2023-02-20T06:34:13.604Z,5.82
2023-02-20T06:39:16.383Z,5.84
2023-02-20T06:44:20.545Z,5.90
2023-02-20T06:49:23.086Z,5.92
2023-02-20T06:54:25.569Z,5.97
2023-02-20T06:59:29.442Z,6.07
2023-02-20T07:04:31.980Z,6.08
2023-02-20T07:09:34.521Z,6.10
2023-02-20T07:14:38.319Z,6.16
2023-02-20T07:19:40.827Z,6.21
2023-02-20T07:24:43.317Z,6.23
2023-02-20T07:29:47.777Z,6.26
2023-02-20T07:35:02.887Z,6.30
2023-02-20T07:40:07.105Z,6.41
2023-02-20T07:45:12.496Z,6.47
2023-02-20T07:50:15.686Z,6.54
2023-02-20T07:55:19.205Z,6.61
2023-02-20T08:00:23.818Z,6.67
2023-02-20T08:05:26.806Z,6.75
2023-02-20T08:10:30.450Z,6.85
2023-02-20T08:15:34.278Z,6.90
2023-02-20T08:20:36.762Z,6.94
2023-02-20T08:25:39.243Z,6.98
2023-02-20T08:30:43.174Z,7.04
2023-02-20T08:35:45.730Z,7.11
2023-02-20T08:40:48.277Z,7.15
2023-02-20T08:45:52.467Z,7.18
2023-02-20T08:50:55.006Z,7.25
2023-02-20T08:55:57.580Z,7.29
2023-02-20T09:01:01.388Z,7.30
2023-02-20T09:06:04.016Z,7.32
2023-02-20T09:11:10.037Z,7.39
2023-02-20T09:16:15.092Z,7.43
2023-02-20T09:21:20.211Z,7.49
2023-02-20T09:26:22.681Z,7.51
2023-02-20T09:31:26.709Z,7.61
2023-02-20T09:36:29.327Z,7.69
2023-02-20T09:41:43.049Z,7.77
2023-02-20T09:46:49.550Z,7.80
2023-02-20T09:51:56.845Z,7.86
2023-02-20T09:57:02.269Z,7.85
2023-02-20T10:02:17.188Z,7.89
2023-02-20T10:07:26.008Z,7.94
2023-02-20T10:12:36.622Z,7.97
2023-02-20T10:17:49.054Z,8.00
2023-02-20T10:22:59.891Z,8.07
2023-02-20T10:28:08.162Z,8.07
2023-02-20T10:33:25.310Z,8.10
2023-02-20T10:38:34.962Z,8.04
2023-02-20T10:43:44.974Z,8.04
2023-02-20T10:48:48.879Z,8.03
2023-02-20T10:53:58.240Z,7.99
2023-02-20T10:59:10.030Z,7.97
2023-02-20T11:04:17.091Z,7.96
2023-02-20T11:09:19.933Z,7.95
2023-02-20T11:14:39.866Z,7.94
2023-02-20T11:19:47.027Z,7.93
2023-02-20T11:24:49.576Z,7.93
2023-02-20T11:29:55.821Z,7.94
2023-02-20T11:35:16.474Z,7.99
2023-02-20T11:40:29.296Z,7.98
2023-02-20T11:45:31.778Z,7.99
2023-02-20T11:50:41.554Z,8.02
2023-02-20T11:55:46.493Z,8.02
2023-02-20T12:00:56.088Z,8.06
2023-02-20T12:06:01.793Z,8.10
2023-02-20T12:11:08.669Z,8.14
2023-02-20T12:16:27.902Z,8.19
2023-02-20T12:21:44.710Z,8.32
2023-02-20T12:26:54.218Z,8.36
2023-02-20T12:32:09.981Z,8.46
2023-02-20T12:37:24.217Z,8.59
2023-02-20T12:42:37.082Z,8.67
2023-02-20T12:47:43.851Z,8.77
2023-02-20T12:53:07.994Z,8.91
2023-02-20T12:58:32.098Z,9.00
2023-02-20T13:03:44.558Z,9.05
2023-02-20T13:08:59.843Z,9.15
2023-02-20T13:14:10.313Z,9.24
2023-02-20T13:19:20.831Z,9.16
2023-02-20T13:24:33.884Z,9.17
2023-02-20T13:29:38.999Z,9.16
2023-02-20T13:34:41.649Z,9.08
2023-02-20T13:39:45.479Z,9.13
2023-02-20T13:44:47.938Z,9.17
2023-02-20T13:50:00.767Z,9.06
2023-02-20T13:55:18.745Z,9.09
2023-02-20T14:00:26.517Z,9.04
2023-02-20T14:05:31.358Z,9.02
2023-02-20T14:10:36.771Z,8.96
2023-02-20T14:15:46.933Z,8.97
2023-02-20T14:20:50.330Z,8.91
2023-02-20T14:26:02.139Z,8.93
2023-02-20T14:31:20.788Z,8.91
2023-02-20T14:36:53.119Z,8.85
2023-02-20T14:41:59.759Z,8.85
2023-02-20T14:47:08.280Z,8.82
2023-02-20T14:52:21.450Z,8.86
2023-02-20T14:57:26.871Z,8.78
2023-02-20T15:02:34.278Z,8.83
2023-02-20T15:07:40.284Z,8.76
2023-02-20T15:12:44.169Z,8.81
2023-02-20T15:17:46.672Z,8.79
2023-02-20T15:22:49.307Z,8.74
2023-02-20T15:28:08.115Z,8.83
2023-02-20T15:33:11.093Z,8.82
2023-02-20T15:38:14.025Z,8.85
2023-02-20T15:43:43.025Z,8.84
2023-02-20T15:48:40.367Z,8.89
2023-02-20T15:53:45.802Z,8.95
2023-02-20T15:58:50.646Z,8.98
2023-02-20T16:04:05.897Z,9.03
2023-02-20T16:09:08.402Z,9.02
2023-02-20T16:14:14.777Z,9.08
2023-02-20T16:19:19.106Z,9.09
2023-02-20T16:24:22.142Z,9.08
2023-02-20T16:29:32.257Z,9.11
2023-02-20T16:34:35.308Z,9.08
2023-02-20T16:39:37.858Z,9.07
2023-02-20T16:44:45.412Z,9.16
2023-02-20T16:49:49.361Z,9.17
2023-02-20T16:54:53.076Z,9.16
2023-02-20T16:59:59.517Z,9.20
2023-02-20T17:05:02.404Z,9.20
2023-02-20T17:10:05.393Z,9.21
2023-02-20T17:15:11.660Z,9.29
2023-02-20T17:20:15.575Z,9.28
2023-02-20T17:25:21.349Z,9.34
2023-02-20T17:30:26.264Z,9.38
2023-02-20T17:35:28.993Z,9.37
2023-02-20T17:40:31.518Z,9.44
2023-02-20T17:45:35.411Z,9.35
2023-02-20T17:50:37.924Z,9.34
2023-02-20T17:55:40.419Z,9.36
2023-02-20T18:00:45.504Z,9.37
2023-02-20T18:05:48.050Z,9.28
2023-02-20T18:10:50.567Z,9.38
2023-02-20T18:15:54.447Z,9.35
2023-02-20T18:20:57.032Z,9.36
2023-02-20T18:25:59.548Z,9.26
2023-02-20T18:31:03.354Z,9.33
2023-02-20T18:36:19.411Z,9.26
2023-02-20T18:41:21.919Z,9.26
2023-02-20T18:46:30.706Z,9.25
2023-02-20T18:51:35.833Z,9.24
2023-02-20T18:56:38.983Z,9.35
2023-02-20T19:01:43.940Z,9.40
2023-02-20T19:06:46.930Z,9.39
2023-02-20T19:11:50.474Z,9.35
2023-02-20T19:16:55.960Z,9.35
2023-02-20T19:21:58.941Z,9.30
2023-02-20T19:27:01.411Z,9.23
2023-02-20T19:32:05.811Z,9.30
2023-02-20T19:37:08.397Z,9.15
2023-02-20T19:42:10.937Z,9.07
2023-02-20T19:47:16.984Z,9.07
2023-02-20T19:52:19.621Z,9.07
2023-02-20T19:57:22.134Z,9.07
2023-02-20T20:02:26.091Z,8.99
2023-02-20T20:07:28.710Z,9.04
2023-02-20T20:12:49.234Z,8.91
2023-02-20T20:17:55.194Z,8.88
2023-02-20T20:23:01.185Z,8.88
2023-02-20T20:28:07.148Z,8.82
2023-02-20T20:33:11.129Z,8.82
2023-02-20T20:38:13.636Z,8.80
2023-02-20T20:43:16.319Z,8.77
2023-02-20T20:48:20.399Z,8.76
2023-02-20T20:53:22.969Z,8.72
2023-02-20T20:58:25.475Z,8.71
2023-02-20T21:03:29.349Z,8.68
2023-02-20T21:08:33.753Z,8.66
2023-02-20T21:13:36.248Z,8.65
2023-02-20T21:18:40.128Z,8.68
2023-02-20T21:23:45.285Z,8.64
2023-02-20T21:28:47.850Z,8.63
2023-02-20T21:33:52.413Z,8.51
2023-02-20T21:38:55.217Z,8.21
2023-02-20T21:44:15.348Z,8.12
2023-02-20T21:49:19.634Z,8.07
2023-02-20T21:54:24.047Z,8.04
2023-02-20T21:59:26.040Z,7.98
2023-02-20T22:10:09.305Z,7.89
2023-02-20T22:15:31.121Z,7.81
2023-02-20T22:20:51.585Z,7.79
2023-02-20T22:26:13.290Z,7.73
2023-02-20T22:31:33.761Z,7.71
2023-02-20T22:36:53.785Z,7.73
2023-02-20T22:42:18.472Z,7.73
2023-02-20T22:47:38.668Z,7.90
2023-02-20T22:52:58.841Z,7.70
2023-02-20T22:58:20.348Z,7.72
2023-02-20T23:03:40.658Z,7.73
2023-02-20T23:09:01.954Z,7.76
2023-02-20T23:14:23.657Z,7.77
2023-02-20T23:19:44.027Z,7.76
2023-02-20T23:25:04.315Z,7.75
2023-02-20T23:30:27.332Z,7.80
2023-02-20T23:35:47.755Z,7.79
2023-02-20T23:41:08.149Z,7.74
2023-02-20T23:46:29.862Z,7.79
2023-02-20T23:51:50.718Z,7.75
2023-02-20T23:57:10.948Z,7.73
